sensor_id;sensor_type;location;lat;lon;timestamp;temperature;humidity
16863;DHT22;52193;48.216;-1.698;2023-06-26T00:00:10;24.90;72.40
16863;DHT22;52193;48.216;-1.698;2023-06-26T00:02:37;24.90;72.30
16863;DHT22;52193;48.216;-1.698;2023-06-26T00:05:05;24.90;72.30
16863;DHT22;52193;48.216;-1.698;2023-06-26T00:07:33;24.80;72.50
16863;DHT22;52193;48.216;-1.698;2023-06-26T00:10:01;24.80;72.70
16863;DHT22;52193;48.216;-1.698;2023-06-26T00:12:28;24.80;72.70
16863;DHT22;52193;48.216;-1.698;2023-06-26T00:14:56;24.70;72.70
16863;DHT22;52193;48.216;-1.698;2023-06-26T00:17:23;24.60;72.80
16863;DHT22;52193;48.216;-1.698;2023-06-26T00:19:50;24.60;73.00
16863;DHT22;52193;48.216;-1.698;2023-06-26T00:22:17;24.60;73.00
16863;DHT22;52193;48.216;-1.698;2023-06-26T00:24:46;24.50;72.90
16863;DHT22;52193;48.216;-1.698;2023-06-26T00:27:13;24.50;73.10
16863;DHT22;52193;48.216;-1.698;2023-06-26T00:29:40;24.40;73.30
16863;DHT22;52193;48.216;-1.698;2023-06-26T00:32:07;24.50;73.30
16863;DHT22;52193;48.216;-1.698;2023-06-26T00:34:34;24.50;73.30
16863;DHT22;52193;48.216;-1.698;2023-06-26T00:37:01;24.40;73.30
16863;DHT22;52193;48.216;-1.698;2023-06-26T00:39:28;24.30;73.50
16863;DHT22;52193;48.216;-1.698;2023-06-26T00:41:56;24.30;73.50
16863;DHT22;52193;48.216;-1.698;2023-06-26T00:44:23;24.20;73.50
16863;DHT22;52193;48.216;-1.698;2023-06-26T00:46:50;24.20;73.60
16863;DHT22;52193;48.216;-1.698;2023-06-26T00:49:17;24.20;73.70
16863;DHT22;52193;48.216;-1.698;2023-06-26T00:51:45;24.20;73.90
16863;DHT22;52193;48.216;-1.698;2023-06-26T00:54:11;24.20;73.80
16863;DHT22;52193;48.216;-1.698;2023-06-26T00:56:45;24.20;73.90
16863;DHT22;52193;48.216;-1.698;2023-06-26T00:59:14;24.10;74.00
16863;DHT22;52193;48.216;-1.698;2023-06-26T01:01:41;24.00;74.00
16863;DHT22;52193;48.216;-1.698;2023-06-26T01:04:08;24.00;74.00
16863;DHT22;52193;48.216;-1.698;2023-06-26T01:06:45;24.00;74.10
16863;DHT22;52193;48.216;-1.698;2023-06-26T01:09:16;24.00;74.20
16863;DHT22;52193;48.216;-1.698;2023-06-26T01:11:44;24.00;74.10
16863;DHT22;52193;48.216;-1.698;2023-06-26T01:14:12;24.00;74.10
16863;DHT22;52193;48.216;-1.698;2023-06-26T01:16:41;24.00;74.10
16863;DHT22;52193;48.216;-1.698;2023-06-26T01:19:18;24.00;74.20
16863;DHT22;52193;48.216;-1.698;2023-06-26T01:21:54;23.90;74.20
16863;DHT22;52193;48.216;-1.698;2023-06-26T01:24:22;23.90;74.20
16863;DHT22;52193;48.216;-1.698;2023-06-26T01:26:54;23.80;74.20
16863;DHT22;52193;48.216;-1.698;2023-06-26T01:29:22;23.80;74.30
16863;DHT22;52193;48.216;-1.698;2023-06-26T01:31:50;23.80;74.40
16863;DHT22;52193;48.216;-1.698;2023-06-26T01:34:18;23.70;74.30
16863;DHT22;52193;48.216;-1.698;2023-06-26T01:36:45;23.80;75.20
16863;DHT22;52193;48.216;-1.698;2023-06-26T01:39:15;23.70;74.50
16863;DHT22;52193;48.216;-1.698;2023-06-26T01:41:42;23.70;74.40
16863;DHT22;52193;48.216;-1.698;2023-06-26T01:44:21;23.70;74.30
16863;DHT22;52193;48.216;-1.698;2023-06-26T01:46:55;23.60;74.40
16863;DHT22;52193;48.216;-1.698;2023-06-26T01:49:30;23.60;74.50
16863;DHT22;52193;48.216;-1.698;2023-06-26T01:52:03;23.50;74.70
16863;DHT22;52193;48.216;-1.698;2023-06-26T01:54:39;23.50;74.80
16863;DHT22;52193;48.216;-1.698;2023-06-26T01:57:08;23.40;74.70
16863;DHT22;52193;48.216;-1.698;2023-06-26T01:59:38;23.50;74.90
16863;DHT22;52193;48.216;-1.698;2023-06-26T02:02:07;23.40;74.70
16863;DHT22;52193;48.216;-1.698;2023-06-26T02:04:34;23.40;74.70
16863;DHT22;52193;48.216;-1.698;2023-06-26T02:07:01;23.40;74.90
16863;DHT22;52193;48.216;-1.698;2023-06-26T02:09:28;23.40;74.90
16863;DHT22;52193;48.216;-1.698;2023-06-26T02:11:55;23.40;75.00
16863;DHT22;52193;48.216;-1.698;2023-06-26T02:14:22;23.30;75.00
16863;DHT22;52193;48.216;-1.698;2023-06-26T02:16:50;23.20;74.90
16863;DHT22;52193;48.216;-1.698;2023-06-26T02:19:17;23.20;75.80
16863;DHT22;52193;48.216;-1.698;2023-06-26T02:21:47;23.10;75.10
16863;DHT22;52193;48.216;-1.698;2023-06-26T02:24:14;23.10;75.20
16863;DHT22;52193;48.216;-1.698;2023-06-26T02:26:41;23.10;75.40
16863;DHT22;52193;48.216;-1.698;2023-06-26T02:29:08;23.10;76.10
16863;DHT22;52193;48.216;-1.698;2023-06-26T02:31:35;23.10;75.50
16863;DHT22;52193;48.216;-1.698;2023-06-26T02:34:03;23.00;75.30
16863;DHT22;52193;48.216;-1.698;2023-06-26T02:36:30;23.00;75.60
16863;DHT22;52193;48.216;-1.698;2023-06-26T02:38:57;23.00;75.60
16863;DHT22;52193;48.216;-1.698;2023-06-26T02:41:24;23.00;75.40
16863;DHT22;52193;48.216;-1.698;2023-06-26T02:43:51;22.90;75.60
16863;DHT22;52193;48.216;-1.698;2023-06-26T02:46:18;22.80;75.70
16863;DHT22;52193;48.216;-1.698;2023-06-26T02:48:45;22.80;75.80
16863;DHT22;52193;48.216;-1.698;2023-06-26T02:51:13;22.80;75.80
16863;DHT22;52193;48.216;-1.698;2023-06-26T02:53:40;22.70;75.80
16863;DHT22;52193;48.216;-1.698;2023-06-26T02:56:07;22.70;76.00
16863;DHT22;52193;48.216;-1.698;2023-06-26T02:58:34;22.70;76.00
16863;DHT22;52193;48.216;-1.698;2023-06-26T03:01:01;22.60;76.00
16863;DHT22;52193;48.216;-1.698;2023-06-26T03:03:28;22.70;76.00
16863;DHT22;52193;48.216;-1.698;2023-06-26T03:05:54;22.70;76.00
16863;DHT22;52193;48.216;-1.698;2023-06-26T03:08:23;22.60;76.00
16863;DHT22;52193;48.216;-1.698;2023-06-26T03:10:50;22.60;75.90
16863;DHT22;52193;48.216;-1.698;2023-06-26T03:13:17;22.60;75.90
16863;DHT22;52193;48.216;-1.698;2023-06-26T03:15:44;22.70;75.90
16863;DHT22;52193;48.216;-1.698;2023-06-26T03:18:11;22.60;76.00
16863;DHT22;52193;48.216;-1.698;2023-06-26T03:20:38;22.50;76.00
16863;DHT22;52193;48.216;-1.698;2023-06-26T03:23:05;22.50;76.10
16863;DHT22;52193;48.216;-1.698;2023-06-26T03:25:33;22.50;76.30
16863;DHT22;52193;48.216;-1.698;2023-06-26T03:28:00;22.50;76.20
16863;DHT22;52193;48.216;-1.698;2023-06-26T03:30:27;22.40;76.20
16863;DHT22;52193;48.216;-1.698;2023-06-26T03:32:54;22.40;76.20
16863;DHT22;52193;48.216;-1.698;2023-06-26T03:35:21;22.40;76.30
16863;DHT22;52193;48.216;-1.698;2023-06-26T03:37:49;22.20;76.30
16863;DHT22;52193;48.216;-1.698;2023-06-26T03:40:16;22.10;76.50
16863;DHT22;52193;48.216;-1.698;2023-06-26T03:42:44;22.10;76.50
16863;DHT22;52193;48.216;-1.698;2023-06-26T03:45:11;22.10;76.60
16863;DHT22;52193;48.216;-1.698;2023-06-26T03:47:38;22.10;76.50
16863;DHT22;52193;48.216;-1.698;2023-06-26T03:50:06;22.00;76.60
16863;DHT22;52193;48.216;-1.698;2023-06-26T03:52:33;22.00;76.60
16863;DHT22;52193;48.216;-1.698;2023-06-26T03:55:00;22.00;76.70
16863;DHT22;52193;48.216;-1.698;2023-06-26T03:57:28;21.90;76.60
16863;DHT22;52193;48.216;-1.698;2023-06-26T03:59:56;21.90;76.60
16863;DHT22;52193;48.216;-1.698;2023-06-26T04:02:23;21.90;76.60
16863;DHT22;52193;48.216;-1.698;2023-06-26T04:04:50;21.90;76.80
16863;DHT22;52193;48.216;-1.698;2023-06-26T04:07:18;21.80;76.80
16863;DHT22;52193;48.216;-1.698;2023-06-26T04:09:45;21.90;76.80
16863;DHT22;52193;48.216;-1.698;2023-06-26T04:12:11;21.90;77.50
16863;DHT22;52193;48.216;-1.698;2023-06-26T04:14:38;21.90;76.80
16863;DHT22;52193;48.216;-1.698;2023-06-26T04:17:07;21.80;76.80
16863;DHT22;52193;48.216;-1.698;2023-06-26T04:19:34;21.80;76.90
16863;DHT22;52193;48.216;-1.698;2023-06-26T04:22:01;21.70;76.80
16863;DHT22;52193;48.216;-1.698;2023-06-26T04:24:28;21.70;77.00
16863;DHT22;52193;48.216;-1.698;2023-06-26T04:26:55;21.80;77.10
16863;DHT22;52193;48.216;-1.698;2023-06-26T04:29:22;21.70;76.90
16863;DHT22;52193;48.216;-1.698;2023-06-26T04:31:51;21.80;77.10
16863;DHT22;52193;48.216;-1.698;2023-06-26T04:34:19;21.80;76.90
16863;DHT22;52193;48.216;-1.698;2023-06-26T04:36:46;21.70;77.00
16863;DHT22;52193;48.216;-1.698;2023-06-26T04:39:13;21.70;77.10
16863;DHT22;52193;48.216;-1.698;2023-06-26T04:41:41;21.70;77.20
16863;DHT22;52193;48.216;-1.698;2023-06-26T04:44:10;21.70;77.30
16863;DHT22;52193;48.216;-1.698;2023-06-26T04:46:38;21.70;77.30
16863;DHT22;52193;48.216;-1.698;2023-06-26T04:49:06;21.60;77.20
16863;DHT22;52193;48.216;-1.698;2023-06-26T04:51:35;21.70;77.30
16863;DHT22;52193;48.216;-1.698;2023-06-26T04:54:06;21.70;77.30
16863;DHT22;52193;48.216;-1.698;2023-06-26T04:56:33;21.60;77.40
16863;DHT22;52193;48.216;-1.698;2023-06-26T04:58:59;21.60;77.50
16863;DHT22;52193;48.216;-1.698;2023-06-26T05:01:26;21.70;77.50
16863;DHT22;52193;48.216;-1.698;2023-06-26T05:03:55;21.70;77.40
16863;DHT22;52193;48.216;-1.698;2023-06-26T05:06:22;21.70;77.50
16863;DHT22;52193;48.216;-1.698;2023-06-26T05:08:50;21.70;77.30
16863;DHT22;52193;48.216;-1.698;2023-06-26T05:11:17;21.60;77.40
16863;DHT22;52193;48.216;-1.698;2023-06-26T05:13:44;21.60;77.40
16863;DHT22;52193;48.216;-1.698;2023-06-26T05:16:11;21.50;77.60
16863;DHT22;52193;48.216;-1.698;2023-06-26T05:18:38;21.50;77.60
16863;DHT22;52193;48.216;-1.698;2023-06-26T05:21:06;21.40;77.90
16863;DHT22;52193;48.216;-1.698;2023-06-26T05:23:34;21.40;78.00
16863;DHT22;52193;48.216;-1.698;2023-06-26T05:26:03;21.50;78.00
16863;DHT22;52193;48.216;-1.698;2023-06-26T05:28:31;21.40;78.10
16863;DHT22;52193;48.216;-1.698;2023-06-26T05:30:58;21.30;78.20
16863;DHT22;52193;48.216;-1.698;2023-06-26T05:33:26;21.40;78.20
16863;DHT22;52193;48.216;-1.698;2023-06-26T05:35:53;21.30;78.20
16863;DHT22;52193;48.216;-1.698;2023-06-26T05:38:21;21.30;78.50
16863;DHT22;52193;48.216;-1.698;2023-06-26T05:40:49;21.20;78.50
16863;DHT22;52193;48.216;-1.698;2023-06-26T05:43:17;21.30;78.80
16863;DHT22;52193;48.216;-1.698;2023-06-26T05:45:46;21.30;78.80
16863;DHT22;52193;48.216;-1.698;2023-06-26T05:48:14;21.30;78.90
16863;DHT22;52193;48.216;-1.698;2023-06-26T05:50:42;21.30;78.90
16863;DHT22;52193;48.216;-1.698;2023-06-26T05:53:10;21.30;78.90
16863;DHT22;52193;48.216;-1.698;2023-06-26T05:55:37;21.40;79.00
16863;DHT22;52193;48.216;-1.698;2023-06-26T05:58:07;21.30;79.30
16863;DHT22;52193;48.216;-1.698;2023-06-26T06:00:36;21.20;79.40
16863;DHT22;52193;48.216;-1.698;2023-06-26T06:03:03;21.30;79.50
16863;DHT22;52193;48.216;-1.698;2023-06-26T06:05:30;21.30;79.40
16863;DHT22;52193;48.216;-1.698;2023-06-26T06:07:56;21.40;79.30
16863;DHT22;52193;48.216;-1.698;2023-06-26T06:10:23;21.50;79.30
16863;DHT22;52193;48.216;-1.698;2023-06-26T06:12:50;21.40;79.20
16863;DHT22;52193;48.216;-1.698;2023-06-26T06:15:17;21.40;79.30
16863;DHT22;52193;48.216;-1.698;2023-06-26T06:17:46;21.60;79.20
16863;DHT22;52193;48.216;-1.698;2023-06-26T06:20:12;21.60;79.10
16863;DHT22;52193;48.216;-1.698;2023-06-26T06:22:39;21.60;79.30
16863;DHT22;52193;48.216;-1.698;2023-06-26T06:25:07;21.50;79.60
16863;DHT22;52193;48.216;-1.698;2023-06-26T06:27:34;21.60;79.50
16863;DHT22;52193;48.216;-1.698;2023-06-26T06:30:01;21.70;79.60
16863;DHT22;52193;48.216;-1.698;2023-06-26T06:32:28;21.80;79.40
16863;DHT22;52193;48.216;-1.698;2023-06-26T06:34:56;21.70;79.40
16863;DHT22;52193;48.216;-1.698;2023-06-26T06:37:23;21.80;79.50
16863;DHT22;52193;48.216;-1.698;2023-06-26T06:39:52;21.80;79.50
16863;DHT22;52193;48.216;-1.698;2023-06-26T06:42:19;21.90;79.50
16863;DHT22;52193;48.216;-1.698;2023-06-26T06:44:45;21.80;79.50
16863;DHT22;52193;48.216;-1.698;2023-06-26T06:47:12;21.80;79.60
16863;DHT22;52193;48.216;-1.698;2023-06-26T06:49:39;21.90;79.50
16863;DHT22;52193;48.216;-1.698;2023-06-26T06:52:08;22.00;79.60
16863;DHT22;52193;48.216;-1.698;2023-06-26T06:54:51;22.00;79.40
16863;DHT22;52193;48.216;-1.698;2023-06-26T06:57:18;22.20;79.40
16863;DHT22;52193;48.216;-1.698;2023-06-26T06:59:46;22.20;79.10
16863;DHT22;52193;48.216;-1.698;2023-06-26T07:02:14;22.20;79.00
16863;DHT22;52193;48.216;-1.698;2023-06-26T07:04:41;22.20;78.70
16863;DHT22;52193;48.216;-1.698;2023-06-26T07:07:10;22.30;78.60
16863;DHT22;52193;48.216;-1.698;2023-06-26T07:09:37;22.30;78.60
16863;DHT22;52193;48.216;-1.698;2023-06-26T07:12:04;22.40;78.40
16863;DHT22;52193;48.216;-1.698;2023-06-26T07:14:31;22.50;78.20
16863;DHT22;52193;48.216;-1.698;2023-06-26T07:16:58;22.60;78.10
16863;DHT22;52193;48.216;-1.698;2023-06-26T07:19:25;22.50;77.90
16863;DHT22;52193;48.216;-1.698;2023-06-26T07:21:52;22.60;77.70
16863;DHT22;52193;48.216;-1.698;2023-06-26T07:24:20;22.50;77.50
16863;DHT22;52193;48.216;-1.698;2023-06-26T07:26:47;22.60;77.30
16863;DHT22;52193;48.216;-1.698;2023-06-26T07:29:14;22.80;77.30
16863;DHT22;52193;48.216;-1.698;2023-06-26T07:31:41;22.80;76.90
16863;DHT22;52193;48.216;-1.698;2023-06-26T07:34:08;22.80;76.60
16863;DHT22;52193;48.216;-1.698;2023-06-26T07:36:35;22.90;76.40
16863;DHT22;52193;48.216;-1.698;2023-06-26T07:39:01;23.00;76.20
16863;DHT22;52193;48.216;-1.698;2023-06-26T07:41:30;23.00;75.90
16863;DHT22;52193;48.216;-1.698;2023-06-26T07:43:57;23.00;75.80
16863;DHT22;52193;48.216;-1.698;2023-06-26T07:46:24;23.10;75.80
16863;DHT22;52193;48.216;-1.698;2023-06-26T07:48:51;23.10;75.50
16863;DHT22;52193;48.216;-1.698;2023-06-26T07:51:18;23.10;75.20
16863;DHT22;52193;48.216;-1.698;2023-06-26T07:53:45;23.20;75.30
16863;DHT22;52193;48.216;-1.698;2023-06-26T07:56:12;23.30;75.20
16863;DHT22;52193;48.216;-1.698;2023-06-26T07:58:40;23.30;74.80
16863;DHT22;52193;48.216;-1.698;2023-06-26T08:01:07;23.30;74.60
16863;DHT22;52193;48.216;-1.698;2023-06-26T08:03:34;23.40;74.60
16863;DHT22;52193;48.216;-1.698;2023-06-26T08:06:02;23.40;74.30
16863;DHT22;52193;48.216;-1.698;2023-06-26T08:08:29;23.40;73.90
16863;DHT22;52193;48.216;-1.698;2023-06-26T08:10:55;23.50;73.70
16863;DHT22;52193;48.216;-1.698;2023-06-26T08:13:22;23.60;73.70
16863;DHT22;52193;48.216;-1.698;2023-06-26T08:15:51;23.60;73.50
16863;DHT22;52193;48.216;-1.698;2023-06-26T08:18:18;23.60;73.30
16863;DHT22;52193;48.216;-1.698;2023-06-26T08:20:45;23.60;73.10
16863;DHT22;52193;48.216;-1.698;2023-06-26T08:23:11;23.60;72.90
16863;DHT22;52193;48.216;-1.698;2023-06-26T08:25:38;23.60;72.70
16863;DHT22;52193;48.216;-1.698;2023-06-26T08:28:05;23.70;72.60
16863;DHT22;52193;48.216;-1.698;2023-06-26T08:30:33;23.70;73.20
16863;DHT22;52193;48.216;-1.698;2023-06-26T08:33:01;23.80;72.30
16863;DHT22;52193;48.216;-1.698;2023-06-26T08:35:28;23.90;72.20
16863;DHT22;52193;48.216;-1.698;2023-06-26T08:37:55;23.80;72.00
16863;DHT22;52193;48.216;-1.698;2023-06-26T08:40:22;23.90;71.80
16863;DHT22;52193;48.216;-1.698;2023-06-26T08:42:49;24.00;71.70
16863;DHT22;52193;48.216;-1.698;2023-06-26T08:45:18;24.10;71.30
16863;DHT22;52193;48.216;-1.698;2023-06-26T08:47:48;24.20;71.00
16863;DHT22;52193;48.216;-1.698;2023-06-26T08:50:20;24.30;70.90
16863;DHT22;52193;48.216;-1.698;2023-06-26T08:52:53;24.30;70.70
16863;DHT22;52193;48.216;-1.698;2023-06-26T08:55:21;24.30;70.70
16863;DHT22;52193;48.216;-1.698;2023-06-26T08:57:50;24.20;70.40
16863;DHT22;52193;48.216;-1.698;2023-06-26T09:00:18;24.10;70.00
16863;DHT22;52193;48.216;-1.698;2023-06-26T09:02:45;24.20;70.00
16863;DHT22;52193;48.216;-1.698;2023-06-26T09:05:12;24.40;69.90
16863;DHT22;52193;48.216;-1.698;2023-06-26T09:07:40;24.60;69.70
16863;DHT22;52193;48.216;-1.698;2023-06-26T09:10:08;24.70;69.20
16863;DHT22;52193;48.216;-1.698;2023-06-26T09:12:36;24.70;69.20
16863;DHT22;52193;48.216;-1.698;2023-06-26T09:15:05;24.80;69.30
16863;DHT22;52193;48.216;-1.698;2023-06-26T09:17:38;24.70;69.00
16863;DHT22;52193;48.216;-1.698;2023-06-26T09:20:06;24.60;68.40
16863;DHT22;52193;48.216;-1.698;2023-06-26T09:22:36;24.60;68.00
16863;DHT22;52193;48.216;-1.698;2023-06-26T09:25:06;24.50;67.30
16863;DHT22;52193;48.216;-1.698;2023-06-26T09:27:34;24.60;67.60
16863;DHT22;52193;48.216;-1.698;2023-06-26T09:30:02;24.80;67.70
16863;DHT22;52193;48.216;-1.698;2023-06-26T09:32:29;25.00;67.60
16863;DHT22;52193;48.216;-1.698;2023-06-26T09:34:56;25.10;66.90
16863;DHT22;52193;48.216;-1.698;2023-06-26T09:37:26;25.20;66.10
16863;DHT22;52193;48.216;-1.698;2023-06-26T09:39:53;25.30;65.80
16863;DHT22;52193;48.216;-1.698;2023-06-26T09:42:23;25.40;65.50
16863;DHT22;52193;48.216;-1.698;2023-06-26T09:44:51;25.50;65.40
16863;DHT22;52193;48.216;-1.698;2023-06-26T09:47:19;25.50;65.00
16863;DHT22;52193;48.216;-1.698;2023-06-26T09:49:46;25.50;65.00
16863;DHT22;52193;48.216;-1.698;2023-06-26T09:52:15;25.50;65.00
16863;DHT22;52193;48.216;-1.698;2023-06-26T09:54:42;25.50;65.00
16863;DHT22;52193;48.216;-1.698;2023-06-26T09:57:11;25.60;64.90
16863;DHT22;52193;48.216;-1.698;2023-06-26T09:59:40;25.80;64.70
16863;DHT22;52193;48.216;-1.698;2023-06-26T10:02:08;25.80;63.70
16863;DHT22;52193;48.216;-1.698;2023-06-26T10:04:36;25.90;63.30
16863;DHT22;52193;48.216;-1.698;2023-06-26T10:07:06;25.80;63.00
16863;DHT22;52193;48.216;-1.698;2023-06-26T10:09:33;25.90;63.00
16863;DHT22;52193;48.216;-1.698;2023-06-26T10:12:06;25.90;63.10
16863;DHT22;52193;48.216;-1.698;2023-06-26T10:14:35;25.80;62.60
16863;DHT22;52193;48.216;-1.698;2023-06-26T10:17:06;25.90;62.70
16863;DHT22;52193;48.216;-1.698;2023-06-26T10:19:35;25.90;62.10
16863;DHT22;52193;48.216;-1.698;2023-06-26T10:22:04;26.20;62.30
16863;DHT22;52193;48.216;-1.698;2023-06-26T10:24:34;26.30;62.40
16863;DHT22;52193;48.216;-1.698;2023-06-26T10:27:06;26.40;62.60
16863;DHT22;52193;48.216;-1.698;2023-06-26T10:29:35;26.40;62.80
16863;DHT22;52193;48.216;-1.698;2023-06-26T10:32:05;26.40;63.20
16863;DHT22;52193;48.216;-1.698;2023-06-26T10:34:33;26.40;63.60
16863;DHT22;52193;48.216;-1.698;2023-06-26T10:37:00;26.40;63.90
16863;DHT22;52193;48.216;-1.698;2023-06-26T10:39:27;26.60;63.80
16863;DHT22;52193;48.216;-1.698;2023-06-26T10:42:09;26.70;63.80
16863;DHT22;52193;48.216;-1.698;2023-06-26T10:44:43;26.90;63.70
16863;DHT22;52193;48.216;-1.698;2023-06-26T10:47:12;27.00;63.20
16863;DHT22;52193;48.216;-1.698;2023-06-26T10:49:40;27.00;62.90
16863;DHT22;52193;48.216;-1.698;2023-06-26T10:52:13;26.90;62.40
16863;DHT22;52193;48.216;-1.698;2023-06-26T10:54:40;26.90;62.80
16863;DHT22;52193;48.216;-1.698;2023-06-26T10:57:07;26.90;62.60
16863;DHT22;52193;48.216;-1.698;2023-06-26T10:59:34;26.90;62.50
16863;DHT22;52193;48.216;-1.698;2023-06-26T11:02:06;26.90;62.70
16863;DHT22;52193;48.216;-1.698;2023-06-26T11:04:39;26.90;62.40
16863;DHT22;52193;48.216;-1.698;2023-06-26T11:07:17;26.90;62.00
16863;DHT22;52193;48.216;-1.698;2023-06-26T11:09:55;26.90;61.80
16863;DHT22;52193;48.216;-1.698;2023-06-26T11:12:35;27.10;61.50
16863;DHT22;52193;48.216;-1.698;2023-06-26T11:15:03;27.40;61.60
16863;DHT22;52193;48.216;-1.698;2023-06-26T11:17:31;27.60;61.40
16863;DHT22;52193;48.216;-1.698;2023-06-26T11:20:00;27.70;61.20
16863;DHT22;52193;48.216;-1.698;2023-06-26T11:22:27;27.60;61.10
16863;DHT22;52193;48.216;-1.698;2023-06-26T11:24:54;27.70;61.30
16863;DHT22;52193;48.216;-1.698;2023-06-26T11:27:31;27.80;61.20
16863;DHT22;52193;48.216;-1.698;2023-06-26T11:29:58;27.90;61.10
16863;DHT22;52193;48.216;-1.698;2023-06-26T11:32:26;27.80;60.50
16863;DHT22;52193;48.216;-1.698;2023-06-26T11:34:54;27.80;59.50
16863;DHT22;52193;48.216;-1.698;2023-06-26T11:37:23;27.70;59.10
16863;DHT22;52193;48.216;-1.698;2023-06-26T11:39:50;27.80;59.00
16863;DHT22;52193;48.216;-1.698;2023-06-26T11:42:18;28.10;59.00
16863;DHT22;52193;48.216;-1.698;2023-06-26T11:44:46;28.20;58.50
16863;DHT22;52193;48.216;-1.698;2023-06-26T11:47:14;28.40;58.50
16863;DHT22;52193;48.216;-1.698;2023-06-26T11:49:45;28.40;58.70
16863;DHT22;52193;48.216;-1.698;2023-06-26T11:52:13;28.50;59.40
16863;DHT22;52193;48.216;-1.698;2023-06-26T11:54:42;28.70;58.80
16863;DHT22;52193;48.216;-1.698;2023-06-26T11:57:14;28.80;58.50
16863;DHT22;52193;48.216;-1.698;2023-06-26T11:59:42;29.10;58.00
16863;DHT22;52193;48.216;-1.698;2023-06-26T12:02:11;29.30;57.20
16863;DHT22;52193;48.216;-1.698;2023-06-26T12:04:41;29.80;56.90
16863;DHT22;52193;48.216;-1.698;2023-06-26T12:07:09;30.30;56.50
16863;DHT22;52193;48.216;-1.698;2023-06-26T12:09:41;30.80;56.00
16863;DHT22;52193;48.216;-1.698;2023-06-26T12:12:10;31.10;55.60
16863;DHT22;52193;48.216;-1.698;2023-06-26T12:14:37;30.90;54.80
16863;DHT22;52193;48.216;-1.698;2023-06-26T12:17:08;30.50;54.60
16863;DHT22;52193;48.216;-1.698;2023-06-26T12:19:37;30.50;55.30
16863;DHT22;52193;48.216;-1.698;2023-06-26T12:22:06;30.90;55.00
16863;DHT22;52193;48.216;-1.698;2023-06-26T12:24:36;31.10;54.90
16863;DHT22;52193;48.216;-1.698;2023-06-26T12:27:08;31.20;54.30
16863;DHT22;52193;48.216;-1.698;2023-06-26T12:29:35;31.40;54.30
16863;DHT22;52193;48.216;-1.698;2023-06-26T12:32:03;31.80;53.80
16863;DHT22;52193;48.216;-1.698;2023-06-26T12:34:32;32.30;53.30
16863;DHT22;52193;48.216;-1.698;2023-06-26T12:37:01;32.30;53.60
16863;DHT22;52193;48.216;-1.698;2023-06-26T12:39:29;32.50;53.60
16863;DHT22;52193;48.216;-1.698;2023-06-26T12:42:00;32.50;53.20
16863;DHT22;52193;48.216;-1.698;2023-06-26T12:44:29;33.10;52.80
16863;DHT22;52193;48.216;-1.698;2023-06-26T12:46:58;34.00;52.30
16863;DHT22;52193;48.216;-1.698;2023-06-26T12:49:32;34.90;51.80
16863;DHT22;52193;48.216;-1.698;2023-06-26T12:52:01;35.30;50.60
16863;DHT22;52193;48.216;-1.698;2023-06-26T12:54:29;35.10;50.90
16863;DHT22;52193;48.216;-1.698;2023-06-26T12:56:56;36.00;50.70
16863;DHT22;52193;48.216;-1.698;2023-06-26T12:59:23;36.40;50.10
16863;DHT22;52193;48.216;-1.698;2023-06-26T13:01:51;35.80;50.20
16863;DHT22;52193;48.216;-1.698;2023-06-26T13:04:18;35.80;50.20
16863;DHT22;52193;48.216;-1.698;2023-06-26T13:06:45;36.50;49.20
16863;DHT22;52193;48.216;-1.698;2023-06-26T13:09:12;36.80;48.50
16863;DHT22;52193;48.216;-1.698;2023-06-26T13:11:39;37.00;48.00
16863;DHT22;52193;48.216;-1.698;2023-06-26T13:14:06;37.50;47.40
16863;DHT22;52193;48.216;-1.698;2023-06-26T13:16:34;38.40;46.40
16863;DHT22;52193;48.216;-1.698;2023-06-26T13:19:02;39.30;45.90
16863;DHT22;52193;48.216;-1.698;2023-06-26T13:21:29;39.60;44.70
16863;DHT22;52193;48.216;-1.698;2023-06-26T13:23:56;40.10;45.00
16863;DHT22;52193;48.216;-1.698;2023-06-26T13:26:24;39.90;45.00
16863;DHT22;52193;48.216;-1.698;2023-06-26T13:28:52;39.40;45.50
16863;DHT22;52193;48.216;-1.698;2023-06-26T13:31:19;39.10;44.80
16863;DHT22;52193;48.216;-1.698;2023-06-26T13:33:46;38.80;44.70
16863;DHT22;52193;48.216;-1.698;2023-06-26T13:36:16;38.40;44.80
16863;DHT22;52193;48.216;-1.698;2023-06-26T13:38:43;40.00;45.00
16863;DHT22;52193;48.216;-1.698;2023-06-26T13:41:10;39.20;44.40
16863;DHT22;52193;48.216;-1.698;2023-06-26T13:43:37;40.80;44.30
16863;DHT22;52193;48.216;-1.698;2023-06-26T13:46:04;41.50;43.30
16863;DHT22;52193;48.216;-1.698;2023-06-26T13:48:31;42.80;43.10
16863;DHT22;52193;48.216;-1.698;2023-06-26T13:50:58;43.80;41.70
16863;DHT22;52193;48.216;-1.698;2023-06-26T13:53:27;43.50;41.60
16863;DHT22;52193;48.216;-1.698;2023-06-26T13:55:54;44.40;41.80
16863;DHT22;52193;48.216;-1.698;2023-06-26T13:58:21;46.20;41.10
16863;DHT22;52193;48.216;-1.698;2023-06-26T14:00:52;47.30;40.50
16863;DHT22;52193;48.216;-1.698;2023-06-26T14:03:19;48.10;40.00
16863;DHT22;52193;48.216;-1.698;2023-06-26T14:05:46;48.70;39.80
16863;DHT22;52193;48.216;-1.698;2023-06-26T14:08:13;48.70;39.50
16863;DHT22;52193;48.216;-1.698;2023-06-26T14:10:41;47.20;38.70
16863;DHT22;52193;48.216;-1.698;2023-06-26T14:13:08;44.70;39.70
16863;DHT22;52193;48.216;-1.698;2023-06-26T14:15:37;45.00;40.50
16863;DHT22;52193;48.216;-1.698;2023-06-26T14:18:05;45.40;40.30
16863;DHT22;52193;48.216;-1.698;2023-06-26T14:20:33;46.10;40.10
16863;DHT22;52193;48.216;-1.698;2023-06-26T14:23:01;46.50;40.00
16863;DHT22;52193;48.216;-1.698;2023-06-26T14:25:28;46.40;40.10
16863;DHT22;52193;48.216;-1.698;2023-06-26T14:27:57;45.80;39.60
16863;DHT22;52193;48.216;-1.698;2023-06-26T14:30:24;44.20;40.30
16863;DHT22;52193;48.216;-1.698;2023-06-26T14:32:51;44.30;40.10
16863;DHT22;52193;48.216;-1.698;2023-06-26T14:35:19;44.80;40.40
16863;DHT22;52193;48.216;-1.698;2023-06-26T14:37:47;45.10;40.40
16863;DHT22;52193;48.216;-1.698;2023-06-26T14:40:15;45.20;40.40
16863;DHT22;52193;48.216;-1.698;2023-06-26T14:42:42;45.50;40.50
16863;DHT22;52193;48.216;-1.698;2023-06-26T14:45:12;45.90;40.60
16863;DHT22;52193;48.216;-1.698;2023-06-26T14:47:39;45.80;40.30
16863;DHT22;52193;48.216;-1.698;2023-06-26T14:50:07;45.60;40.50
16863;DHT22;52193;48.216;-1.698;2023-06-26T14:52:34;45.00;41.00
16863;DHT22;52193;48.216;-1.698;2023-06-26T14:55:01;44.20;41.20
16863;DHT22;52193;48.216;-1.698;2023-06-26T14:57:28;43.50;41.50
16863;DHT22;52193;48.216;-1.698;2023-06-26T14:59:56;42.60;41.50
16863;DHT22;52193;48.216;-1.698;2023-06-26T15:02:24;41.80;42.00
16863;DHT22;52193;48.216;-1.698;2023-06-26T15:04:51;40.90;42.60
16863;DHT22;52193;48.216;-1.698;2023-06-26T15:07:18;40.40;43.30
16863;DHT22;52193;48.216;-1.698;2023-06-26T15:09:45;40.00;43.70
16863;DHT22;52193;48.216;-1.698;2023-06-26T15:12:12;39.40;44.00
16863;DHT22;52193;48.216;-1.698;2023-06-26T15:14:39;39.00;44.60
16863;DHT22;52193;48.216;-1.698;2023-06-26T15:17:06;38.80;44.90
16863;DHT22;52193;48.216;-1.698;2023-06-26T15:19:35;38.50;45.10